sensor_id;sensor_type;location;lat;lon;timestamp;pressure;altitude;pressure_sealevel;temperature;humidity
7888;BME280;3989;48.810;9.208;2023-05-21T00:01:22;98329.72;;;15.62;nan
7888;BME280;3989;48.810;9.208;2023-05-21T00:03:49;98387.59;;;15.89;nan
7888;BME280;3989;48.810;9.208;2023-05-21T00:06:16;98388.06;;;15.86;nan
7888;BME280;3989;48.810;9.208;2023-05-21T00:08:45;98353.72;;;15.63;nan
7888;BME280;3989;48.810;9.208;2023-05-21T00:11:13;98396.84;;;15.75;nan
7888;BME280;3989;48.810;9.208;2023-05-21T00:13:39;98319.16;;;15.36;nan
7888;BME280;3989;48.810;9.208;2023-05-21T00:16:06;98221.50;;;14.74;nan
7888;BME280;3989;48.810;9.208;2023-05-21T00:18:35;98276.38;;;15.09;nan
7888;BME280;3989;48.810;9.208;2023-05-21T00:21:03;98286.56;;;15.25;nan
7888;BME280;3989;48.810;9.208;2023-05-21T00:23:30;98312.88;;;15.48;nan
7888;BME280;3989;48.810;9.208;2023-05-21T00:25:57;98362.06;;;15.73;nan
7888;BME280;3989;48.810;9.208;2023-05-21T00:28:25;98308.97;;;15.44;nan
7888;BME280;3989;48.810;9.208;2023-05-21T00:30:52;98362.16;;;15.67;nan
7888;BME280;3989;48.810;9.208;2023-05-21T00:33:18;98109.47;;;14.00;nan
7888;BME280;3989;48.810;9.208;2023-05-21T00:35:46;98358.47;;;15.61;nan
7888;BME280;3989;48.810;9.208;2023-05-21T00:38:12;98154.16;;;14.44;nan
7888;BME280;3989;48.810;9.208;2023-05-21T00:40:42;98352.66;;;15.64;nan
7888;BME280;3989;48.810;9.208;2023-05-21T00:43:08;98354.16;;;15.60;nan
7888;BME280;3989;48.810;9.208;2023-05-21T00:45:36;98332.84;;;15.34;nan
7888;BME280;3989;48.810;9.208;2023-05-21T00:48:04;98272.94;;;15.02;nan
7888;BME280;3989;48.810;9.208;2023-05-21T00:50:32;98347.38;;;15.51;nan
7888;BME280;3989;48.810;9.208;2023-05-21T00:52:58;98345.75;;;15.50;nan
7888;BME280;3989;48.810;9.208;2023-05-21T00:55:25;98283.16;;;15.18;nan
7888;BME280;3989;48.810;9.208;2023-05-21T00:57:51;98335.97;;;15.56;nan
7888;BME280;3989;48.810;9.208;2023-05-21T01:00:18;98336.44;;;15.53;nan
7888;BME280;3989;48.810;9.208;2023-05-21T01:02:46;98340.09;;;15.58;nan
7888;BME280;3989;48.810;9.208;2023-05-21T01:05:14;98318.03;;;15.50;nan
7888;BME280;3989;48.810;9.208;2023-05-21T01:07:41;98126.06;;;14.15;nan
7888;BME280;3989;48.810;9.208;2023-05-21T01:10:09;98329.56;;;15.57;nan
7888;BME280;3989;48.810;9.208;2023-05-21T01:12:37;98304.31;;;15.33;nan
7888;BME280;3989;48.810;9.208;2023-05-21T01:15:05;98336.19;;;15.54;nan
7888;BME280;3989;48.810;9.208;2023-05-21T01:17:32;98333.94;;;15.51;nan
7888;BME280;3989;48.810;9.208;2023-05-21T01:20:01;98315.81;;;15.40;nan
7888;BME280;3989;48.810;9.208;2023-05-21T01:22:34;98297.78;;;15.22;nan
7888;BME280;3989;48.810;9.208;2023-05-21T01:25:02;98322.69;;;15.36;nan
7888;BME280;3989;48.810;9.208;2023-05-21T01:27:29;98330.69;;;15.43;nan
7888;BME280;3989;48.810;9.208;2023-05-21T01:29:56;98331.50;;;15.43;nan
7888;BME280;3989;48.810;9.208;2023-05-21T01:32:25;98329.03;;;15.42;nan
7888;BME280;3989;48.810;9.208;2023-05-21T01:35:01;98328.28;;;15.35;nan
7888;BME280;3989;48.810;9.208;2023-05-21T01:37:34;98326.06;;;15.25;nan
7888;BME280;3989;48.810;9.208;2023-05-21T01:40:08;98314.19;;;15.14;nan
7888;BME280;3989;48.810;9.208;2023-05-21T01:42:37;98305.78;;;15.04;nan
7888;BME280;3989;48.810;9.208;2023-05-21T01:45:05;98317.06;;;15.13;nan
7888;BME280;3989;48.810;9.208;2023-05-21T01:47:34;98336.13;;;15.11;nan
7888;BME280;3989;48.810;9.208;2023-05-21T01:50:03;98322.94;;;15.03;nan
7888;BME280;3989;48.810;9.208;2023-05-21T01:52:30;98310.44;;;14.91;nan
7888;BME280;3989;48.810;9.208;2023-05-21T01:54:57;98311.69;;;14.88;nan
7888;BME280;3989;48.810;9.208;2023-05-21T01:57:26;98336.41;;;14.97;nan
7888;BME280;3989;48.810;9.208;2023-05-21T01:59:52;98155.56;;;13.84;nan
7888;BME280;3989;48.810;9.208;2023-05-21T02:02:20;98258.28;;;14.42;nan
7888;BME280;3989;48.810;9.208;2023-05-21T02:04:47;98220.00;;;14.15;nan
7888;BME280;3989;48.810;9.208;2023-05-21T02:07:14;98204.34;;;14.06;nan
7888;BME280;3989;48.810;9.208;2023-05-21T02:09:42;98323.78;;;14.73;nan
7888;BME280;3989;48.810;9.208;2023-05-21T02:12:09;98243.72;;;14.18;nan
7888;BME280;3989;48.810;9.208;2023-05-21T02:14:38;98214.50;;;14.04;nan
7888;BME280;3989;48.810;9.208;2023-05-21T02:17:04;98259.34;;;14.28;nan
7888;BME280;3989;48.810;9.208;2023-05-21T02:19:32;98274.66;;;14.28;nan
7888;BME280;3989;48.810;9.208;2023-05-21T02:21:58;98320.56;;;14.57;nan
7888;BME280;3989;48.810;9.208;2023-05-21T02:24:25;98236.59;;;13.93;nan
7888;BME280;3989;48.810;9.208;2023-05-21T02:26:51;98267.09;;;14.11;nan
7888;BME280;3989;48.810;9.208;2023-05-21T02:29:18;98289.28;;;14.25;nan
7888;BME280;3989;48.810;9.208;2023-05-21T02:31:46;98155.16;;;13.43;nan
7888;BME280;3989;48.810;9.208;2023-05-21T02:34:12;98316.25;;;14.56;nan
7888;BME280;3989;48.810;9.208;2023-05-21T02:36:39;98165.97;;;13.67;nan
7888;BME280;3989;48.810;9.208;2023-05-21T02:39:07;98196.00;;;13.89;nan
7888;BME280;3989;48.810;9.208;2023-05-21T02:41:33;98312.69;;;14.62;nan
7888;BME280;3989;48.810;9.208;2023-05-21T02:44:00;98315.97;;;14.64;nan
7888;BME280;3989;48.810;9.208;2023-05-21T02:46:26;98310.00;;;14.62;nan
7888;BME280;3989;48.810;9.208;2023-05-21T02:48:54;98259.34;;;14.28;nan
7888;BME280;3989;48.810;9.208;2023-05-21T02:51:21;98313.72;;;14.61;nan
7888;BME280;3989;48.810;9.208;2023-05-21T02:53:47;98308.78;;;14.58;nan
7888;BME280;3989;48.810;9.208;2023-05-21T02:56:14;98321.66;;;14.50;nan
7888;BME280;3989;48.810;9.208;2023-05-21T02:58:40;98274.72;;;14.14;nan
7888;BME280;3989;48.810;9.208;2023-05-21T03:01:07;98315.69;;;14.41;nan
7888;BME280;3989;48.810;9.208;2023-05-21T03:03:33;98210.09;;;13.72;nan
7888;BME280;3989;48.810;9.208;2023-05-21T03:06:02;98192.38;;;13.64;nan
7888;BME280;3989;48.810;9.208;2023-05-21T03:08:28;98243.84;;;13.99;nan
7888;BME280;3989;48.810;9.208;2023-05-21T03:10:56;98276.38;;;14.09;nan
7888;BME280;3989;48.810;9.208;2023-05-21T03:13:22;98292.44;;;14.15;nan
7888;BME280;3989;48.810;9.208;2023-05-21T03:15:49;98291.41;;;14.16;nan
7888;BME280;3989;48.810;9.208;2023-05-21T03:18:20;98191.44;;;13.45;nan
7888;BME280;3989;48.810;9.208;2023-05-21T03:20:47;98292.72;;;14.01;nan
7888;BME280;3989;48.810;9.208;2023-05-21T03:23:14;98267.41;;;13.84;nan
7888;BME280;3989;48.810;9.208;2023-05-21T03:25:41;98281.56;;;14.04;nan
7888;BME280;3989;48.810;9.208;2023-05-21T03:28:08;98289.34;;;14.12;nan
7888;BME280;3989;48.810;9.208;2023-05-21T03:30:34;98228.66;;;13.73;nan
7888;BME280;3989;48.810;9.208;2023-05-21T03:33:02;98247.38;;;13.86;nan
7888;BME280;3989;48.810;9.208;2023-05-21T03:35:29;98291.44;;;14.10;nan
7888;BME280;3989;48.810;9.208;2023-05-21T03:37:55;98225.22;;;13.59;nan
7888;BME280;3989;48.810;9.208;2023-05-21T03:40:23;98281.59;;;13.97;nan
7888;BME280;3989;48.810;9.208;2023-05-21T03:42:50;98279.94;;;13.96;nan
7888;BME280;3989;48.810;9.208;2023-05-21T03:45:16;98296.84;;;14.03;nan
7888;BME280;3989;48.810;9.208;2023-05-21T03:47:43;98113.66;;;12.88;nan
7888;BME280;3989;48.810;9.208;2023-05-21T03:50:10;98295.19;;;13.96;nan
7888;BME280;3989;48.810;9.208;2023-05-21T03:52:36;98298.31;;;13.93;nan
7888;BME280;3989;48.810;9.208;2023-05-21T03:55:03;98276.31;;;13.71;nan
7888;BME280;3989;48.810;9.208;2023-05-21T03:57:31;98211.47;;;13.30;nan
7888;BME280;3989;48.810;9.208;2023-05-21T03:59:58;98302.91;;;13.86;nan
7888;BME280;3989;48.810;9.208;2023-05-21T04:02:25;98182.63;;;13.05;nan
7888;BME280;3989;48.810;9.208;2023-05-21T04:04:51;98279.22;;;13.63;nan
7888;BME280;3989;48.810;9.208;2023-05-21T04:07:19;98306.38;;;13.80;nan
7888;BME280;3989;48.810;9.208;2023-05-21T04:09:46;98323.72;;;13.84;nan
7888;BME280;3989;48.810;9.208;2023-05-21T04:12:13;98230.41;;;13.35;nan
7888;BME280;3989;48.810;9.208;2023-05-21T04:14:41;98255.97;;;13.50;nan
7888;BME280;3989;48.810;9.208;2023-05-21T04:17:08;98330.28;;;13.94;nan
7888;BME280;3989;48.810;9.208;2023-05-21T04:19:36;98332.75;;;14.02;nan
7888;BME280;3989;48.810;9.208;2023-05-21T04:22:03;98298.97;;;13.88;nan
7888;BME280;3989;48.810;9.208;2023-05-21T04:24:30;98203.16;;;13.44;nan
7888;BME280;3989;48.810;9.208;2023-05-21T04:26:57;98242.91;;;13.67;nan
7888;BME280;3989;48.810;9.208;2023-05-21T04:29:25;98269.44;;;13.95;nan
7888;BME280;3989;48.810;9.208;2023-05-21T04:31:53;98328.50;;;14.33;nan
7888;BME280;3989;48.810;9.208;2023-05-21T04:34:20;98297.38;;;14.18;nan
7888;BME280;3989;48.810;9.208;2023-05-21T04:36:46;98330.78;;;14.36;nan
7888;BME280;3989;48.810;9.208;2023-05-21T04:39:14;98299.66;;;14.22;nan
7888;BME280;3989;48.810;9.208;2023-05-21T04:41:41;98300.84;;;14.26;nan
7888;BME280;3989;48.810;9.208;2023-05-21T04:44:09;98331.53;;;14.56;nan
7888;BME280;3989;48.810;9.208;2023-05-21T04:46:39;98288.06;;;14.28;nan
7888;BME280;3989;48.810;9.208;2023-05-21T04:49:08;98300.63;;;14.40;nan
7888;BME280;3989;48.810;9.208;2023-05-21T04:51:34;98346.53;;;14.70;nan
7888;BME280;3989;48.810;9.208;2023-05-21T04:54:02;98283.09;;;14.31;nan
7888;BME280;3989;48.810;9.208;2023-05-21T04:56:28;98306.97;;;14.52;nan
7888;BME280;3989;48.810;9.208;2023-05-21T04:58:56;98340.28;;;14.76;nan
7888;BME280;3989;48.810;9.208;2023-05-21T05:01:24;98344.56;;;14.84;nan
7888;BME280;3989;48.810;9.208;2023-05-21T05:03:51;98344.38;;;14.85;nan
7888;BME280;3989;48.810;9.208;2023-05-21T05:06:19;98329.97;;;14.73;nan
7888;BME280;3989;48.810;9.208;2023-05-21T05:08:46;98353.81;;;14.94;nan
7888;BME280;3989;48.810;9.208;2023-05-21T05:11:13;98355.84;;;14.99;nan
7888;BME280;3989;48.810;9.208;2023-05-21T05:13:39;98269.97;;;14.54;nan
7888;BME280;3989;48.810;9.208;2023-05-21T05:16:06;98332.13;;;14.96;nan
7888;BME280;3989;48.810;9.208;2023-05-21T05:18:33;98320.31;;;14.97;nan
7888;BME280;3989;48.810;9.208;2023-05-21T05:21:00;98351.81;;;15.14;nan
7888;BME280;3989;48.810;9.208;2023-05-21T05:23:28;98286.91;;;14.86;nan
7888;BME280;3989;48.810;9.208;2023-05-21T05:25:55;98336.81;;;15.25;nan
7888;BME280;3989;48.810;9.208;2023-05-21T05:28:21;98302.72;;;15.01;nan
7888;BME280;3989;48.810;9.208;2023-05-21T05:30:48;98293.38;;;15.03;nan
7888;BME280;3989;48.810;9.208;2023-05-21T05:33:14;98350.53;;;15.42;nan
7888;BME280;3989;48.810;9.208;2023-05-21T05:35:41;98344.88;;;15.56;nan
7888;BME280;3989;48.810;9.208;2023-05-21T05:38:07;98194.91;;;14.66;nan
7888;BME280;3989;48.810;9.208;2023-05-21T05:40:35;98250.31;;;15.10;nan
7888;BME280;3989;48.810;9.208;2023-05-21T05:43:02;98336.00;;;15.74;nan
7888;BME280;3989;48.810;9.208;2023-05-21T05:45:29;98236.38;;;15.19;nan
7888;BME280;3989;48.810;9.208;2023-05-21T05:47:55;98344.09;;;15.92;nan
7888;BME280;3989;48.810;9.208;2023-05-21T05:50:22;98272.63;;;15.60;nan
7888;BME280;3989;48.810;9.208;2023-05-21T05:52:49;98334.00;;;16.06;nan
7888;BME280;3989;48.810;9.208;2023-05-21T05:55:16;98362.34;;;16.26;nan
7888;BME280;3989;48.810;9.208;2023-05-21T05:57:44;98322.34;;;16.12;nan
7888;BME280;3989;48.810;9.208;2023-05-21T06:00:12;98348.88;;;16.26;nan
7888;BME280;3989;48.810;9.208;2023-05-21T06:02:39;98341.09;;;16.37;nan
7888;BME280;3989;48.810;9.208;2023-05-21T06:05:06;98352.91;;;16.54;nan
7888;BME280;3989;48.810;9.208;2023-05-21T06:07:35;98320.06;;;16.45;nan
7888;BME280;3989;48.810;9.208;2023-05-21T06:10:03;98330.38;;;16.66;nan
7888;BME280;3989;48.810;9.208;2023-05-21T06:12:29;98341.00;;;16.91;nan
7888;BME280;3989;48.810;9.208;2023-05-21T06:14:58;98213.97;;;16.16;nan
7888;BME280;3989;48.810;9.208;2023-05-21T06:17:24;98344.91;;;17.07;nan
7888;BME280;3989;48.810;9.208;2023-05-21T06:19:51;98345.75;;;17.19;nan
7888;BME280;3989;48.810;9.208;2023-05-21T06:22:18;98304.47;;;17.07;nan
7888;BME280;3989;48.810;9.208;2023-05-21T06:24:44;98316.44;;;17.22;nan
7888;BME280;3989;48.810;9.208;2023-05-21T06:27:11;98339.72;;;17.47;nan
7888;BME280;3989;48.810;9.208;2023-05-21T06:29:37;98244.66;;;16.87;nan
7888;BME280;3989;48.810;9.208;2023-05-21T06:32:07;98365.56;;;17.66;nan
7888;BME280;3989;48.810;9.208;2023-05-21T06:34:33;98355.25;;;17.74;nan
7888;BME280;3989;48.810;9.208;2023-05-21T06:37:00;98319.59;;;17.61;nan
7888;BME280;3989;48.810;9.208;2023-05-21T06:39:26;98302.44;;;17.55;nan
7888;BME280;3989;48.810;9.208;2023-05-21T06:41:53;98295.16;;;17.44;nan
7888;BME280;3989;48.810;9.208;2023-05-21T06:44:20;98344.94;;;17.83;nan
7888;BME280;3989;48.810;9.208;2023-05-21T06:46:47;98302.81;;;17.59;nan
7888;BME280;3989;48.810;9.208;2023-05-21T06:49:15;98234.19;;;17.31;nan
7888;BME280;3989;48.810;9.208;2023-05-21T06:51:42;98197.47;;;16.96;nan
7888;BME280;3989;48.810;9.208;2023-05-21T06:54:08;98344.69;;;17.84;nan
7888;BME280;3989;48.810;9.208;2023-05-21T06:56:35;98269.34;;;17.37;nan
7888;BME280;3989;48.810;9.208;2023-05-21T06:59:01;98289.66;;;17.62;nan
7888;BME280;3989;48.810;9.208;2023-05-21T07:01:28;98345.97;;;18.05;nan
7888;BME280;3989;48.810;9.208;2023-05-21T07:03:55;98316.50;;;17.92;nan
7888;BME280;3989;48.810;9.208;2023-05-21T07:06:23;98219.97;;;17.36;nan
7888;BME280;3989;48.810;9.208;2023-05-21T07:08:49;98262.56;;;17.69;nan
7888;BME280;3989;48.810;9.208;2023-05-21T07:11:16;98227.38;;;17.41;nan
7888;BME280;3989;48.810;9.208;2023-05-21T07:13:43;98365.53;;;18.24;nan
7888;BME280;3989;48.810;9.208;2023-05-21T07:16:11;98343.22;;;18.17;nan
7888;BME280;3989;48.810;9.208;2023-05-21T07:18:37;98244.84;;;17.61;nan
7888;BME280;3989;48.810;9.208;2023-05-21T07:21:04;98280.63;;;17.80;nan
7888;BME280;3989;48.810;9.208;2023-05-21T07:23:32;98240.03;;;17.63;nan
7888;BME280;3989;48.810;9.208;2023-05-21T07:25:59;98359.97;;;18.42;nan
7888;BME280;3989;48.810;9.208;2023-05-21T07:28:25;98376.34;;;18.75;nan
7888;BME280;3989;48.810;9.208;2023-05-21T07:30:52;98333.91;;;18.76;nan
7888;BME280;3989;48.810;9.208;2023-05-21T07:33:19;98273.50;;;18.42;nan
7888;BME280;3989;48.810;9.208;2023-05-21T07:35:47;98317.97;;;18.91;nan
7888;BME280;3989;48.810;9.208;2023-05-21T07:38:13;98361.69;;;19.45;nan
7888;BME280;3989;48.810;9.208;2023-05-21T07:40:41;98247.09;;;18.89;nan
7888;BME280;3989;48.810;9.208;2023-05-21T07:43:08;98310.34;;;19.50;nan
7888;BME280;3989;48.810;9.208;2023-05-21T07:45:34;98275.81;;;19.40;nan
7888;BME280;3989;48.810;9.208;2023-05-21T07:48:01;98327.69;;;19.87;nan
7888;BME280;3989;48.810;9.208;2023-05-21T07:50:28;98273.22;;;19.83;nan
7888;BME280;3989;48.810;9.208;2023-05-21T07:52:55;98278.06;;;20.03;nan
7888;BME280;3989;48.810;9.208;2023-05-21T07:55:22;98297.16;;;20.13;nan
7888;BME280;3989;48.810;9.208;2023-05-21T07:57:50;98357.94;;;20.61;nan
7888;BME280;3989;48.810;9.208;2023-05-21T08:00:16;98332.97;;;20.59;nan
7888;BME280;3989;48.810;9.208;2023-05-21T08:02:43;98349.06;;;20.92;nan
7888;BME280;3989;48.810;9.208;2023-05-21T08:05:10;98329.63;;;21.00;nan
7888;BME280;3989;48.810;9.208;2023-05-21T08:07:37;98241.19;;;20.72;nan
7888;BME280;3989;48.810;9.208;2023-05-21T08:10:04;98320.88;;;21.52;nan
7888;BME280;3989;48.810;9.208;2023-05-21T08:12:31;98333.38;;;21.89;nan
7888;BME280;3989;48.810;9.208;2023-05-21T08:14:59;98316.03;;;21.95;nan
7888;BME280;3989;48.810;9.208;2023-05-21T08:17:25;98333.84;;;21.81;nan
7888;BME280;3989;48.810;9.208;2023-05-21T08:19:52;98335.81;;;21.91;nan
7888;BME280;3989;48.810;9.208;2023-05-21T08:22:19;98349.53;;;22.06;nan
7888;BME280;3989;48.810;9.208;2023-05-21T08:24:45;98257.25;;;21.84;nan
7888;BME280;3989;48.810;9.208;2023-05-21T08:27:12;98338.53;;;22.38;nan
7888;BME280;3989;48.810;9.208;2023-05-21T08:29:40;98290.03;;;22.15;nan
7888;BME280;3989;48.810;9.208;2023-05-21T08:32:08;98355.31;;;22.25;nan
7888;BME280;3989;48.810;9.208;2023-05-21T08:34:34;98347.94;;;22.15;nan
7888;BME280;3989;48.810;9.208;2023-05-21T08:37:01;98375.44;;;22.24;nan
7888;BME280;3989;48.810;9.208;2023-05-21T08:39:33;98296.25;;;22.00;nan
7888;BME280;3989;48.810;9.208;2023-05-21T08:42:06;98220.69;;;21.50;nan
7888;BME280;3989;48.810;9.208;2023-05-21T08:44:36;98291.34;;;21.97;nan
7888;BME280;3989;48.810;9.208;2023-05-21T08:47:12;98362.72;;;22.34;nan
7888;BME280;3989;48.810;9.208;2023-05-21T08:49:41;98336.00;;;22.21;nan
7888;BME280;3989;48.810;9.208;2023-05-21T08:52:10;98350.53;;;22.42;nan
7888;BME280;3989;48.810;9.208;2023-05-21T08:54:36;98357.88;;;22.41;nan
7888;BME280;3989;48.810;9.208;2023-05-21T08:57:04;98334.13;;;22.27;nan
7888;BME280;3989;48.810;9.208;2023-05-21T08:59:30;98334.16;;;22.32;nan
7888;BME280;3989;48.810;9.208;2023-05-21T09:01:57;98353.88;;;22.64;nan
7888;BME280;3989;48.810;9.208;2023-05-21T09:04:26;98228.03;;;21.96;nan
7888;BME280;3989;48.810;9.208;2023-05-21T09:06:54;98336.22;;;22.67;nan
7888;BME280;3989;48.810;9.208;2023-05-21T09:09:28;98297.25;;;22.51;nan
7888;BME280;3989;48.810;9.208;2023-05-21T09:11:57;98374.41;;;22.97;nan
7888;BME280;3989;48.810;9.208;2023-05-21T09:14:25;98312.44;;;22.37;nan
7888;BME280;3989;48.810;9.208;2023-05-21T09:16:52;98309.66;;;22.27;nan
7888;BME280;3989;48.810;9.208;2023-05-21T09:19:19;98372.56;;;22.45;nan
7888;BME280;3989;48.810;9.208;2023-05-21T09:21:49;98358.81;;;22.15;nan
7888;BME280;3989;48.810;9.208;2023-05-21T09:24:16;98318.56;;;21.70;nan
7888;BME280;3989;48.810;9.208;2023-05-21T09:26:42;98345.19;;;21.73;nan
7888;BME280;3989;48.810;9.208;2023-05-21T09:29:11;98367.34;;;21.92;nan
7888;BME280;3989;48.810;9.208;2023-05-21T09:31:42;98336.22;;;21.73;nan
7888;BME280;3989;48.810;9.208;2023-05-21T09:34:08;98288.09;;;21.63;nan
7888;BME280;3989;48.810;9.208;2023-05-21T09:36:36;98252.28;;;21.66;nan
7888;BME280;3989;48.810;9.208;2023-05-21T09:39:05;98366.03;;;22.41;nan
7888;BME280;3989;48.810;9.208;2023-05-21T09:41:31;98360.91;;;22.55;nan
7888;BME280;3989;48.810;9.208;2023-05-21T09:44:00;98282.66;;;22.05;nan
7888;BME280;3989;48.810;9.208;2023-05-21T09:46:26;98380.06;;;22.80;nan
7888;BME280;3989;48.810;9.208;2023-05-21T09:48:53;98338.75;;;22.98;nan
7888;BME280;3989;48.810;9.208;2023-05-21T09:51:20;98349.97;;;23.37;nan
7888;BME280;3989;48.810;9.208;2023-05-21T09:53:52;98366.34;;;23.58;nan
7888;BME280;3989;48.810;9.208;2023-05-21T09:56:22;98361.44;;;23.55;nan
7888;BME280;3989;48.810;9.208;2023-05-21T09:58:52;98240.25;;;23.01;nan
7888;BME280;3989;48.810;9.208;2023-05-21T10:01:20;98320.03;;;23.52;nan
7888;BME280;3989;48.810;9.208;2023-05-21T10:03:49;98254.13;;;23.15;nan
7888;BME280;3989;48.810;9.208;2023-05-21T10:06:19;98291.16;;;23.46;nan
7888;BME280;3989;48.810;9.208;2023-05-21T10:08:47;98235.63;;;23.22;nan
7888;BME280;3989;48.810;9.208;2023-05-21T10:11:16;98350.78;;;23.88;nan
7888;BME280;3989;48.810;9.208;2023-05-21T10:13:47;98373.63;;;24.38;nan
7888;BME280;3989;48.810;9.208;2023-05-21T10:16:16;98358.19;;;24.72;nan
7888;BME280;3989;48.810;9.208;2023-05-21T10:18:46;98326.13;;;24.49;nan
7888;BME280;3989;48.810;9.208;2023-05-21T10:21:14;98317.06;;;24.59;nan
7888;BME280;3989;48.810;9.208;2023-05-21T10:23:41;98293.88;;;24.61;nan
7888;BME280;3989;48.810;9.208;2023-05-21T10:26:09;98353.22;;;24.89;nan
7888;BME280;3989;48.810;9.208;2023-05-21T10:28:36;98353.75;;;24.96;nan
7888;BME280;3989;48.810;9.208;2023-05-21T10:31:05;98349.41;;;24.90;nan
7888;BME280;3989;48.810;9.208;2023-05-21T10:33:34;98356.97;;;25.03;nan
7888;BME280;3989;48.810;9.208;2023-05-21T10:36:01;98250.78;;;24.58;nan
7888;BME280;3989;48.810;9.208;2023-05-21T10:38:29;98353.13;;;25.10;nan
7888;BME280;3989;48.810;9.208;2023-05-21T10:40:57;98209.09;;;24.47;nan
7888;BME280;3989;48.810;9.208;2023-05-21T10:43:47;98350.66;;;25.47;nan
7888;BME280;3989;48.810;9.208;2023-05-21T10:49:29;98308.00;;;25.17;nan
7888;BME280;3989;48.810;9.208;2023-05-21T10:52:08;98341.06;;;25.11;nan
7888;BME280;3989;48.810;9.208;2023-05-21T10:54:59;98330.97;;;25.11;nan
7888;BME280;3989;48.810;9.208;2023-05-21T10:57:42;98310.66;;;25.27;nan
7888;BME280;3989;48.810;9.208;2023-05-21T11:00:14;98327.19;;;25.46;nan
7888;BME280;3989;48.810;9.208;2023-05-21T11:02:43;98260.16;;;24.91;nan
7888;BME280;3989;48.810;9.208;2023-05-21T11:05:10;98344.56;;;25.21;nan
7888;BME280;3989;48.810;9.208;2023-05-21T11:07:50;98339.72;;;25.08;nan
7888;BME280;3989;48.810;9.208;2023-05-21T11:10:32;98331.91;;;24.96;nan
7888;BME280;3989;48.810;9.208;2023-05-21T11:13:05;98331.84;;;25.06;nan
7888;BME280;3989;48.810;9.208;2023-05-21T11:16:05;98250.16;;;24.71;nan
7888;BME280;3989;48.810;9.208;2023-05-21T11:19:01;98340.94;;;25.70;nan
7888;BME280;3989;48.810;9.208;2023-05-21T11:21:29;98249.16;;;25.35;nan
7888;BME280;3989;48.810;9.208;2023-05-21T11:23:59;98289.88;;;25.65;nan
7888;BME280;3989;48.810;9.208;2023-05-21T11:26:30;98282.78;;;25.64;nan
7888;BME280;3989;48.810;9.208;2023-05-21T11:29:16;98320.84;;;26.08;nan
7888;BME280;3989;48.810;9.208;2023-05-21T11:31:45;98281.56;;;25.75;nan
7888;BME280;3989;48.810;9.208;2023-05-21T11:34:13;98216.78;;;25.52;nan
7888;BME280;3989;48.810;9.208;2023-05-21T11:36:43;98238.50;;;25.91;nan
7888;BME280;3989;48.810;9.208;2023-05-21T11:39:10;98332.69;;;26.75;nan
7888;BME280;3989;48.810;9.208;2023-05-21T11:41:50;98300.19;;;26.26;nan
7888;BME280;3989;48.810;9.208;2023-05-21T11:44:17;98243.03;;;26.00;nan
7888;BME280;3989;48.810;9.208;2023-05-21T11:46:45;98297.47;;;26.26;nan
7888;BME280;3989;48.810;9.208;2023-05-21T11:49:14;98285.09;;;26.28;nan
7888;BME280;3989;48.810;9.208;2023-05-21T11:51:41;98241.22;;;25.91;nan
7888;BME280;3989;48.810;9.208;2023-05-21T11:54:09;98282.69;;;26.27;nan
7888;BME280;3989;48.810;9.208;2023-05-21T11:56:37;98313.44;;;26.37;nan
7888;BME280;3989;48.810;9.208;2023-05-21T11:59:12;98251.00;;;26.21;nan
7888;BME280;3989;48.810;9.208;2023-05-21T12:01:41;98338.06;;;26.85;nan
7888;BME280;3989;48.810;9.208;2023-05-21T12:04:07;98330.84;;;26.89;nan
7888;BME280;3989;48.810;9.208;2023-05-21T12:06:36;98216.34;;;26.11;nan
7888;BME280;3989;48.810;9.208;2023-05-21T12:09:07;98201.66;;;26.07;nan
7888;BME280;3989;48.810;9.208;2023-05-21T12:11:36;98324.13;;;27.00;nan
7888;BME280;3989;48.810;9.208;2023-05-21T12:14:06;98287.41;;;26.82;nan
7888;BME280;3989;48.810;9.208;2023-05-21T12:16:32;98253.91;;;26.72;nan
7888;BME280;3989;48.810;9.208;2023-05-21T12:18:59;98214.53;;;26.49;nan
7888;BME280;3989;48.810;9.208;2023-05-21T12:21:26;98230.19;;;26.43;nan
7888;BME280;3989;48.810;9.208;2023-05-21T12:23:54;98266.31;;;26.64;nan
7888;BME280;3989;48.810;9.208;2023-05-21T12:26:21;98209.84;;;26.31;nan
7888;BME280;3989;48.810;9.208;2023-05-21T12:28:49;98308.88;;;27.12;nan
7888;BME280;3989;48.810;9.208;2023-05-21T12:31:16;98330.78;;;27.31;nan
7888;BME280;3989;48.810;9.208;2023-05-21T12:33:43;98281.16;;;26.82;nan
7888;BME280;3989;48.810;9.208;2023-05-21T12:36:20;98199.09;;;26.39;nan
7888;BME280;3989;48.810;9.208;2023-05-21T12:38:47;98330.88;;;27.45;nan
7888;BME280;3989;48.810;9.208;2023-05-21T12:41:16;98282.66;;;27.25;nan
7888;BME280;3989;48.810;9.208;2023-05-21T12:43:43;98259.63;;;26.94;nan
7888;BME280;3989;48.810;9.208;2023-05-21T12:46:10;98323.97;;;27.29;nan
7888;BME280;3989;48.810;9.208;2023-05-21T12:48:39;98309.41;;;27.33;nan
7888;BME280;3989;48.810;9.208;2023-05-21T12:51:05;98310.78;;;27.31;nan
7888;BME280;3989;48.810;9.208;2023-05-21T12:53:35;98270.59;;;27.26;nan
7888;BME280;3989;48.810;9.208;2023-05-21T12:56:09;98299.84;;;27.63;nan
7888;BME280;3989;48.810;9.208;2023-05-21T12:58:37;98273.44;;;27.53;nan
7888;BME280;3989;48.810;9.208;2023-05-21T13:01:05;98257.00;;;27.53;nan
7888;BME280;3989;48.810;9.208;2023-05-21T13:03:32;98296.66;;;28.02;nan
7888;BME280;3989;48.810;9.208;2023-05-21T13:05:59;98334.63;;;28.41;nan
7888;BME280;3989;48.810;9.208;2023-05-21T13:08:26;98335.66;;;28.45;nan
7888;BME280;3989;48.810;9.208;2023-05-21T13:10:53;98305.56;;;28.12;nan
7888;BME280;3989;48.810;9.208;2023-05-21T13:13:20;98297.94;;;28.09;nan
7888;BME280;3989;48.810;9.208;2023-05-21T13:15:48;98320.81;;;28.46;nan
7888;BME280;3989;48.810;9.208;2023-05-21T13:18:14;98197.88;;;28.07;nan
7888;BME280;3989;48.810;9.208;2023-05-21T13:20:41;98184.63;;;28.23;nan
7888;BME280;3989;48.810;9.208;2023-05-21T13:23:07;98309.13;;;29.03;nan
7888;BME280;3989;48.810;9.208;2023-05-21T13:25:34;98198.63;;;28.48;nan
7888;BME280;3989;48.810;9.208;2023-05-21T13:28:02;98319.31;;;29.39;nan
7888;BME280;3989;48.810;9.208;2023-05-21T13:30:29;98266.63;;;29.01;nan
7888;BME280;3989;48.810;9.208;2023-05-21T13:32:58;98267.13;;;29.03;nan
7888;BME280;3989;48.810;9.208;2023-05-21T13:35:25;98179.63;;;28.38;nan
7888;BME280;3989;48.810;9.208;2023-05-21T13:37:52;98237.66;;;28.95;nan
7888;BME280;3989;48.810;9.208;2023-05-21T13:40:18;98318.75;;;29.73;nan
7888;BME280;3989;48.810;9.208;2023-05-21T13:42:46;98285.47;;;29.52;nan
7888;BME280;3989;48.810;9.208;2023-05-21T13:45:14;98274.66;;;29.55;nan
7888;BME280;3989;48.810;9.208;2023-05-21T13:47:41;98314.84;;;29.96;nan
7888;BME280;3989;48.810;9.208;2023-05-21T13:50:10;98207.66;;;29.51;nan
7888;BME280;3989;48.810;9.208;2023-05-21T13:52:37;98212.22;;;29.87;nan